Needles Airport Needles US
ICAO: KEED
IATA: EED
Category: Medium
Scheduled Services: No

Elevation: 983 ft
TransAlt. 18000 ft.

Airport Communications:
LOS ANGELES CNTR:134.65
ASOS:128.325
PRESCOTT RDO:115.2
CTAF/UNICOM:123

KEED Zoom In..

If you have problems with the map follow the link
https://www.worldairports.se/pages/airport.php?
ICAO=KEED

Runways:

(A) RW 02 length 4235 ft width 100 ft
---- / hdg 16

(B) RW 11 length 5005 ft width 100 ft
---- / hdg 106

(C) RW 20 length 4235 ft width 100 ft
---- / hdg 196

(D) RW 29 length 5005 ft width 100 ft
---- / hdg 286

Location; KEED
Day. 18 / Time. 02.56 Zulu
* Altimeter: 30.22
* Temperature: 13° c. 55.4°f.
* Wind from: 320° Speed 08 kn.
Dewpoint: -07° c.
Visibility: 10 Statute Miles.
Clouds: Clear (automated report).

KEED 180256Z AUTO 32008KT 10SM CLR 13/M07 A3022 RMK AO2 SLP226 T01331072 53008


Wind From 320°
Speed 08 kn.

 
 
jpsmedia worldairports.se 2020   terms of use